Aérodrome :
LOGIN :

S'inscrire | Disclaimer

   EN    FR    IT 

 










Légende :    VFR   VFR Marginal   IFR   IFR Intensif   IFR Très Intensif
Visi : 
Plafond : 
>= 8 km
>= 3000ft
5 à 8 km
1000 à 3000 ft
1500m à 5 km
500 à 1000 ft
800 à 1500m
200 à 500 ft
< 800m
< 200 ft
Symboles :   Orages  Brouillard  Fortes neiges  Fortes précipitations  Vent > 20 kt
SIGMETs :   Divers  Orages  Givrage  Turbulence  Onde Orograph.  Cendres Volcan.







- Altitude de l'aérodrome : 21 ft
- Code IATA : BJV


LTFE - Bodrum

DERNIER METAR :
  • 230450Z 07005KT 030V100 CAVOK 29/13 Q1007 NOSIG RMK RWY10 08008KT

METARs EXPIRÉS :
  • 230420Z 06006KT 020V080 CAVOK 28/12 Q1007 NOSIG RMK RWY10 09010KT
  • 230350Z 07010KT CAVOK 28/11 Q1007 NOSIG RMK RWY10 08010KT
  • 230320Z 06008KT 030V100 CAVOK 28/10 Q1007 NOSIG RMK RWY10 VRB02KT
  • 230250Z 07008KT CAVOK 28/11 Q1007 NOSIG RMK RWY10 11006KT
  • 230220Z 08006KT 040V140 CAVOK 26/11 Q1007 NOSIG RMK RWY10 10007KT

TAF TAF LTFE
Valide du 23 à 00h jusqu'au 24 à 00h UTC


222240Z 2300/2324 VRB02KT CAVOK
BECMG 2307/2309 26013KT
TEMPO 2313/2317 32015KT
BECMG 2317/2320 VRB02KT
Pas de NOTAMs connus pour ce terrain.



MET'MAP, la Météo Aéronautique d'un coup d'oeil ! - Copyright ORBIFLY Décembre 2007 - Disclaimer

ORBIFLY MET'MAP TEAM :

Programmation & Développement : Alexandra Zaïnal
Conception & Développement : Baudouin d'Aumeries
Co-Programmation & Développement : Marc-Olivier Méhu
Soutien technique & logistique : Manuel Goepfert

Contact : metmap@orbifly.com




SOURCES & CREDITS :

   NOAA